KBRO/BRO METAR and TAF weather

Enter ICAO airport designator
Station Type Date Time Source
KBRO METAR 2020/09/22 00:53 UTC NOAA

KBRO 220053Z 34007KT 10SM OVC045 26/21 A2989 RMK AO2 SLP120 T02560206


Station Type Date Time Source
KBRO Decoded METAR 2020/09/22 00:53 UTC NOAA

BROWNSVILLE/SOUTH PADRE IS, TX, United States (KBRO) 25-54N 97-25W 5M
Sep 21, 2020 - 08:53 PM EDT / 2020.09.22 0053 UTC
Wind: from the NNW (340 degrees) at 8 MPH (7 KT):0
Visibility: 10 mile(s):0
Sky conditions: overcast
Temperature: 78.1 F (25.6 C)
Dew Point: 69.1 F (20.6 C)
Relative Humidity: 73%
Pressure (altimeter): 29.89 in. Hg (1012 hPa)
ob: KBRO 220053Z 34007KT 10SM OVC045 26/21 A2989 RMK AO2 SLP120 T02560206
cycle: 1

Station Type Date Time Source
KBRO TAF 2020/09/21 19:39 UTC NOAA

TAF
AMD KBRO 211837Z 2119/2218 31015G20KT P6SM SCT025 OVC035
FM220300 31010KT P6SM BKN030 OVC050

Example: see airport list